Time;durP1;ratioP1;P1;durP2;ratioP2;P2;SDS_P1;SDS_P2;PMS_P1;PMS_P2;Temp;Humidity;BMP_temperature;BMP_pressure;BME280_temperature;BME280_humidity;BME280_pressure;Samples;Min_cycle;Max_cycle;Signal;HPM_P1;HPM_P2
2022/11/05 00:09:29;;;;;;;15.87;13.60;;;13.40;99.90;;;;;;5050992;28;20434;-70
2022/11/05 00:17:25;;;;;;;14.33;12.90;;;13.30;99.90;;;;;;5049727;28;20433;-70
2022/11/05 00:19:51;;;;;;;20.43;14.80;;;13.20;99.90;;;;;;5052310;28;20872;-70
2022/11/05 00:25:13;;;;;;;17.60;13.77;;;13.20;99.90;;;;;;5051943;28;20162;-70
2022/11/05 00:27:39;;;;;;;15.07;12.90;;;13.20;99.90;;;;;;5036008;28;20397;-70
2022/11/05 00:30:06;;;;;;;17.20;13.77;;;13.10;99.90;;;;;;5033846;28;20969;-69
2022/11/05 00:32:32;;;;;;;15.03;11.80;;;13.10;99.90;;;;;;5033306;28;20418;-69
2022/11/05 00:34:58;;;;;;;14.00;11.97;;;13.10;99.90;;;;;;5051857;28;20406;-70
2022/11/05 00:37:26;;;;;;;14.37;12.87;;;13.10;99.90;;;;;;5051209;28;20765;-70
2022/11/05 00:39:52;;;;;;;14.63;12.93;;;13.10;99.90;;;;;;5055428;28;20454;-69
2022/11/05 00:45:03;;;;;;;14.67;12.73;;;13.00;99.90;;;;;;5054466;28;20699;-70
2022/11/05 00:50:19;;;;;;;13.57;12.37;;;13.00;99.90;;;;;;5054962;28;20418;-70
2022/11/05 00:52:55;;;;;;;12.80;11.27;;;12.90;99.90;;;;;;5054391;28;20846;-69
2022/11/05 00:55:23;;;;;;;12.67;11.37;;;12.90;99.90;;;;;;5037055;28;20748;-70
2022/11/05 00:57:49;;;;;;;13.23;11.07;;;12.80;99.90;;;;;;5055676;28;20422;-69
2022/11/05 01:00:15;;;;;;;15.13;12.77;;;12.80;99.90;;;;;;5054306;28;20447;-70
2022/11/05 01:02:41;;;;;;;12.90;11.67;;;12.80;99.90;;;;;;5054600;28;21016;-70
2022/11/05 01:05:07;;;;;;;13.57;12.20;;;12.80;99.90;;;;;;5054930;28;20440;-70
2022/11/05 01:07:33;;;;;;;13.83;12.43;;;12.80;99.90;;;;;;5035803;28;20259;-69
2022/11/05 01:09:58;;;;;;;16.80;12.27;;;12.80;99.90;;;;;;5053657;28;20428;-70
2022/11/05 01:12:24;;;;;;;14.90;13.37;;;12.80;99.90;;;;;;5036452;28;20170;-70
2022/11/05 01:14:50;;;;;;;15.90;12.77;;;12.90;99.90;;;;;;5053988;28;20670;-69
2022/11/05 01:17:15;;;;;;;15.63;13.07;;;12.90;99.90;;;;;;5054152;28;20670;-70
2022/11/05 01:19:44;;;;;;;15.80;14.30;;;12.90;99.90;;;;;;5053988;28;20236;-70
2022/11/05 01:22:09;;;;;;;14.83;12.93;;;12.80;99.90;;;;;;5053966;28;20184;-70
2022/11/05 01:24:35;;;;;;;14.80;13.10;;;12.90;99.90;;;;;;5054011;28;20412;-69
2022/11/05 01:27:01;;;;;;;15.93;12.33;;;12.90;99.90;;;;;;5053153;28;20635;-69
2022/11/05 01:29:26;;;;;;;13.70;12.30;;;12.80;99.90;;;;;;5053896;28;20175;-70
2022/11/05 01:31:52;;;;;;;12.73;11.43;;;12.80;99.90;;;;;;5054244;28;20551;-70
2022/11/05 01:34:18;;;;;;;14.10;12.50;;;12.80;99.90;;;;;;5036357;28;20216;-70
2022/11/05 01:36:43;;;;;;;14.03;12.17;;;12.80;99.90;;;;;;5053471;28;20634;-70
2022/11/05 01:39:09;;;;;;;13.30;12.00;;;12.80;99.90;;;;;;5054243;28;20201;-70
2022/11/05 01:41:35;;;;;;;14.57;13.03;;;12.90;99.90;;;;;;5052783;28;20740;-70
2022/11/05 01:44:00;;;;;;;14.50;13.03;;;12.80;99.90;;;;;;5053454;28;20193;-70
2022/11/05 01:46:38;;;;;;;13.30;11.87;;;12.80;99.90;;;;;;5051788;28;20219;-70
2022/11/05 01:49:14;;;;;;;17.40;12.37;;;12.70;99.90;;;;;;5053249;28;20440;-69
2022/11/05 01:51:41;;;;;;;12.63;11.33;;;12.70;99.90;;;;;;5036213;28;20407;-70
2022/11/05 01:54:12;;;;;;;12.93;11.63;;;12.70;99.90;;;;;;5054309;28;20406;-70
2022/11/05 01:56:53;;;;;;;13.83;10.93;;;12.60;99.90;;;;;;5053510;28;20414;-70
2022/11/05 01:59:25;;;;;;;16.13;12.47;;;12.50;99.90;;;;;;5053154;28;20457;-70
2022/11/05 02:01:52;;;;;;;13.57;11.90;;;12.40;99.90;;;;;;5054210;28;20455;-69
2022/11/05 02:04:30;;;;;;;13.90;12.00;;;12.40;99.90;;;;;;5053024;28;20463;-70
2022/11/05 02:06:56;;;;;;;13.07;10.80;;;12.40;99.90;;;;;;5054004;28;20435;-69
2022/11/05 02:09:38;;;;;;;16.63;12.33;;;12.30;99.90;;;;;;5053153;28;20408;-70
2022/11/05 02:12:05;;;;;;;13.53;12.13;;;12.30;99.90;;;;;;5052999;28;20400;-70
2022/11/05 02:14:31;;;;;;;14.33;12.83;;;12.30;99.90;;;;;;5052025;28;20428;-69
2022/11/05 02:17:30;;;;;;;14.57;12.60;;;12.30;99.90;;;;;;5053809;28;20415;-69
2022/11/05 02:20:15;;;;;;;13.50;12.10;;;12.40;99.90;;;;;;5039109;28;20268;-69
2022/11/05 02:23:04;;;;;;;15.77;12.27;;;12.40;99.90;;;;;;5052964;28;20469;-69
2022/11/05 02:26:07;;;;;;;15.80;12.40;;;12.40;99.90;;;;;;5032862;28;20504;-69
2022/11/05 02:29:10;;;;;;;13.10;11.87;;;12.40;99.90;;;;;;5052474;28;20504;-70
2022/11/05 02:31:36;;;;;;;16.50;11.80;;;12.40;99.90;;;;;;5052873;28;20605;-69
2022/11/05 02:34:29;;;;;;;16.77;12.27;;;12.40;99.90;;;;;;5053492;28;20405;-69
2022/11/05 02:37:06;;;;;;;14.07;12.33;;;12.50;99.90;;;;;;5034511;28;20247;-70
2022/11/05 02:39:49;;;;;;;13.53;12.13;;;12.40;99.90;;;;;;5052565;28;20446;-69
2022/11/05 02:42:57;;;;;;;13.57;12.17;;;12.50;99.90;;;;;;5053315;28;20427;-69
2022/11/05 02:45:36;;;;;;;12.83;11.60;;;12.50;99.90;;;;;;5040543;28;20424;-70
2022/11/05 02:48:30;;;;;;;17.90;13.10;;;12.40;99.90;;;;;;5052137;28;20431;-70
2022/11/05 02:51:15;;;;;;;14.20;11.93;;;12.40;99.90;;;;;;5053388;28;20432;-69
2022/11/05 02:53:58;;;;;;;15.33;12.20;;;12.40;99.90;;;;;;5051339;28;20466;-70
2022/11/05 02:56:29;;;;;;;13.97;12.57;;;12.40;99.90;;;;;;5052555;28;20530;-70
2022/11/05 02:58:54;;;;;;;16.07;12.80;;;12.40;99.90;;;;;;5035495;28;20387;-69
2022/11/05 03:01:20;;;;;;;14.87;12.17;;;12.30;99.90;;;;;;5048265;28;20795;-70
2022/11/05 03:04:01;;;;;;;15.50;13.23;;;12.30;99.90;;;;;;5052405;28;20611;-69
2022/11/05 03:07:03;;;;;;;15.60;12.20;;;12.30;99.90;;;;;;5051616;28;20657;-70
2022/11/05 03:09:49;;;;;;;16.47;12.50;;;12.30;99.90;;;;;;5034189;28;20416;-69
2022/11/05 03:12:20;;;;;;;14.97;13.47;;;12.30;99.90;;;;;;5052853;28;20400;-69
2022/11/05 03:15:15;;;;;;;15.40;13.80;;;12.30;99.90;;;;;;5032859;28;20470;-69
2022/11/05 03:18:02;;;;;;;16.10;13.07;;;12.20;99.90;;;;;;5051837;28;20400;-69
2022/11/05 03:20:42;;;;;;;17.10;13.70;;;12.20;99.90;;;;;;5050889;28;20427;-70
2022/11/05 03:23:17;;;;;;;14.57;13.07;;;12.20;99.90;;;;;;5052732;28;20398;-69
2022/11/05 03:25:48;;;;;;;15.60;13.80;;;12.20;99.90;;;;;;5032627;28;20920;-69
2022/11/05 03:28:16;;;;;;;15.83;13.43;;;12.30;99.90;;;;;;5052490;28;20404;-69
2022/11/05 03:30:43;;;;;;;17.10;13.50;;;12.10;99.90;;;;;;5033712;28;20428;-69
2022/11/05 03:33:17;;;;;;;15.43;13.80;;;12.10;99.90;;;;;;5052412;28;20420;-69
2022/11/05 03:35:50;;;;;;;19.20;13.30;;;12.20;99.90;;;;;;5050935;28;20445;-69
2022/11/05 03:38:26;;;;;;;18.00;14.17;;;12.20;99.90;;;;;;5052542;28;20920;-69
2022/11/05 03:40:54;;;;;;;17.90;13.53;;;12.20;99.90;;;;;;5052109;28;20400;-69
2022/11/05 03:43:26;;;;;;;15.13;13.53;;;12.20;99.90;;;;;;5050444;28;20904;-70
2022/11/05 03:46:06;;;;;;;15.50;13.70;;;12.10;99.90;;;;;;5052299;28;20786;-70
2022/11/05 03:48:40;;;;;;;18.27;14.57;;;12.10;99.90;;;;;;5031540;28;20393;-70
2022/11/05 03:51:43;;;;;;;17.10;14.83;;;12.10;99.90;;;;;;5032471;28;20429;-69
2022/11/05 03:54:09;;;;;;;18.80;15.50;;;12.10;99.90;;;;;;5032367;28;20452;-70
2022/11/05 03:57:13;;;;;;;23.90;17.17;;;12.00;99.90;;;;;;5031366;28;20416;-69
2022/11/05 03:59:45;;;;;;;20.07;15.00;;;12.00;99.90;;;;;;4950790;29;20434;-70
2022/11/05 04:02:13;;;;;;;19.50;15.27;;;12.00;99.90;;;;;;4951873;28;20465;-70
2022/11/05 04:04:40;;;;;;;15.87;14.20;;;12.00;99.90;;;;;;4951947;28;20447;-71
2022/11/05 04:15:23;;;;;;;23.57;15.50;;;11.90;99.90;;;;;;4969950;28;20510;-73
2022/11/05 04:17:49;;;;;;;23.30;16.83;;;11.80;99.90;;;;;;4973496;28;20420;-71
2022/11/05 04:25:46;;;;;;;21.30;15.67;;;11.80;99.90;;;;;;4972488;28;20467;-71
2022/11/05 04:28:13;;;;;;;20.97;15.23;;;11.80;99.90;;;;;;4975068;28;20533;-71
2022/11/05 04:30:39;;;;;;;20.20;16.10;;;11.80;99.90;;;;;;5004615;28;20521;-71
2022/11/05 04:33:10;;;;;;;21.80;17.20;;;11.80;99.90;;;;;;5055734;28;20413;-69
2022/11/05 04:35:38;;;;;;;24.07;16.23;;;11.80;99.90;;;;;;5054657;28;20443;-69
2022/11/05 04:38:06;;;;;;;23.90;16.83;;;11.80;99.90;;;;;;5034481;28;20433;-70
2022/11/05 04:40:32;;;;;;;25.73;17.47;;;11.80;99.90;;;;;;5054837;28;20411;-70
2022/11/05 04:42:58;;;;;;;24.40;17.30;;;11.80;99.90;;;;;;5054449;28;21050;-68
2022/11/05 04:45:26;;;;;;;24.80;18.30;;;11.80;99.90;;;;;;5054143;28;20511;-68
2022/11/05 04:47:51;;;;;;;21.60;16.87;;;11.80;99.90;;;;;;5050407;28;20434;-68
2022/11/05 04:50:17;;;;;;;24.47;15.70;;;11.80;99.90;;;;;;5059279;28;20890;-68
2022/11/05 04:52:43;;;;;;;22.10;17.00;;;11.80;99.90;;;;;;5054594;28;20378;-67
2022/11/05 04:55:09;;;;;;;25.07;16.40;;;11.80;99.90;;;;;;5054218;28;20193;-68
2022/11/05 04:57:35;;;;;;;22.20;17.47;;;11.80;99.90;;;;;;5055004;28;20194;-68
2022/11/05 05:00:01;;;;;;;24.03;18.17;;;11.80;99.90;;;;;;5052891;28;20431;-68
2022/11/05 05:02:27;;;;;;;27.07;20.17;;;11.80;99.90;;;;;;5054883;28;20217;-69
2022/11/05 05:04:52;;;;;;;31.20;21.00;;;11.80;99.90;;;;;;5035684;28;20186;-68
2022/11/05 05:07:18;;;;;;;26.90;18.97;;;11.90;99.90;;;;;;5043363;28;20458;-68
2022/11/05 05:09:44;;;;;;;26.60;20.13;;;11.90;99.90;;;;;;5054059;28;20235;-68
2022/11/05 05:12:09;;;;;;;24.60;18.80;;;12.00;99.90;;;;;;5040087;28;20646;-68
2022/11/05 05:14:35;;;;;;;27.50;18.63;;;11.90;99.90;;;;;;5000555;28;20186;-68
2022/11/05 05:17:01;;;;;;;25.83;19.60;;;12.00;99.90;;;;;;5053082;28;20258;-68
2022/11/05 05:19:26;;;;;;;26.20;19.43;;;12.00;99.90;;;;;;5046460;28;20186;-68
2022/11/05 05:21:52;;;;;;;29.00;19.03;;;11.90;99.90;;;;;;5033829;28;20264;-68
2022/11/05 05:24:19;;;;;;;23.17;18.27;;;11.90;99.90;;;;;;5032450;28;20194;-68
2022/11/05 05:26:49;;;;;;;30.10;21.47;;;11.90;99.90;;;;;;5035255;28;20333;-68
2022/11/05 05:29:17;;;;;;;25.47;18.73;;;11.80;99.90;;;;;;5043900;28;20505;-68
2022/11/05 05:31:43;;;;;;;27.13;19.50;;;11.80;99.90;;;;;;5044866;28;20842;-69
2022/11/05 05:34:13;;;;;;;27.63;18.80;;;11.80;99.90;;;;;;5053041;28;20430;-68
2022/11/05 05:36:38;;;;;;;25.70;18.93;;;11.80;99.90;;;;;;5054146;28;20426;-68
2022/11/05 05:39:05;;;;;;;29.07;19.83;;;11.80;99.90;;;;;;5055309;28;20875;-68
2022/11/05 05:41:32;;;;;;;29.50;20.00;;;11.80;99.90;;;;;;5051633;28;20604;-68
2022/11/05 05:43:57;;;;;;;30.23;20.13;;;11.80;99.90;;;;;;5037004;28;20452;-69
2022/11/05 05:46:23;;;;;;;30.07;20.93;;;11.80;99.90;;;;;;5054812;28;20447;-68
2022/11/05 05:48:51;;;;;;;26.90;18.80;;;11.80;99.90;;;;;;5052209;28;20185;-68
2022/11/05 05:51:18;;;;;;;28.20;18.57;;;11.80;99.90;;;;;;5052926;28;20420;-68
2022/11/05 05:53:43;;;;;;;29.27;20.07;;;11.80;99.90;;;;;;5053485;28;20403;-68
2022/11/05 05:56:09;;;;;;;23.63;17.43;;;11.80;99.90;;;;;;5054396;28;20409;-68
2022/11/05 05:58:38;;;;;;;29.20;20.20;;;11.80;99.90;;;;;;5051758;28;20203;-69
2022/11/05 06:01:10;;;;;;;27.50;18.50;;;11.80;99.90;;;;;;5039657;28;20469;-68
2022/11/05 06:03:36;;;;;;;24.53;17.57;;;11.70;99.90;;;;;;5073104;28;20490;-69
2022/11/05 06:06:07;;;;;;;26.37;18.83;;;11.70;99.90;;;;;;5065764;28;20549;-68
2022/11/05 06:08:33;;;;;;;28.17;18.60;;;11.70;99.90;;;;;;5060803;28;20186;-69
2022/11/05 06:11:00;;;;;;;29.43;19.87;;;11.60;99.90;;;;;;5070587;28;20443;-69
2022/11/05 06:13:25;;;;;;;32.90;20.80;;;11.60;99.90;;;;;;5070719;28;20405;-69
2022/11/05 06:15:51;;;;;;;31.10;20.77;;;11.60;99.90;;;;;;5072275;28;20464;-69
2022/11/05 06:18:17;;;;;;;28.67;18.70;;;11.60;99.90;;;;;;5073946;28;20489;-69
2022/11/05 06:20:43;;;;;;;27.13;17.90;;;11.60;99.90;;;;;;5073072;28;20184;-69
2022/11/05 06:23:08;;;;;;;28.70;19.60;;;11.60;99.90;;;;;;5073656;28;20182;-68
2022/11/05 06:25:34;;;;;;;26.60;19.10;;;11.60;99.90;;;;;;5072915;28;20279;-69
2022/11/05 06:28:00;;;;;;;25.03;18.20;;;11.60;99.90;;;;;;5072488;28;20202;-68
2022/11/05 06:30:26;;;;;;;24.93;18.77;;;11.60;99.90;;;;;;5071710;28;20586;-69
2022/11/05 06:32:51;;;;;;;25.03;16.73;;;11.60;99.90;;;;;;5068006;28;20180;-69
2022/11/05 06:35:17;;;;;;;22.40;16.73;;;11.60;99.90;;;;;;5068666;28;20179;-68
2022/11/05 06:37:43;;;;;;;25.43;16.90;;;11.60;99.90;;;;;;5072091;28;20243;-68
2022/11/05 06:40:11;;;;;;;25.67;18.20;;;11.60;99.90;;;;;;5073549;28;20409;-68
2022/11/05 06:42:37;;;;;;;24.87;17.37;;;11.60;99.90;;;;;;5072364;28;20414;-68
2022/11/05 06:45:03;;;;;;;23.50;17.17;;;11.50;99.90;;;;;;5073362;28;20258;-69
2022/11/05 06:47:29;;;;;;;21.67;16.70;;;11.50;99.90;;;;;;5073231;28;20205;-69
2022/11/05 06:49:56;;;;;;;24.77;17.73;;;11.50;99.90;;;;;;5072348;28;20775;-69
2022/11/05 06:52:21;;;;;;;22.77;15.80;;;11.40;99.90;;;;;;5072257;28;20167;-69
2022/11/05 06:54:47;;;;;;;21.87;16.63;;;11.30;99.90;;;;;;5070180;28;20482;-69
2022/11/05 06:57:13;;;;;;;22.27;17.10;;;11.20;99.90;;;;;;5069552;28;20177;-69
2022/11/05 06:59:39;;;;;;;20.77;16.60;;;11.20;99.90;;;;;;5068665;28;20190;-69
2022/11/05 07:02:05;;;;;;;19.90;15.30;;;11.30;99.90;;;;;;5082430;28;20625;-69
2022/11/05 07:04:31;;;;;;;25.50;15.90;;;11.20;99.90;;;;;;5080564;28;20495;-70
2022/11/05 07:07:00;;;;;;;20.00;15.73;;;11.10;99.90;;;;;;5067910;28;20471;-69
2022/11/05 07:09:27;;;;;;;19.30;14.30;;;11.10;99.90;;;;;;5066869;28;20539;-69
2022/11/05 07:11:53;;;;;;;21.90;15.93;;;11.10;99.90;;;;;;5065782;28;20486;-69
2022/11/05 07:14:19;;;;;;;20.00;15.60;;;11.10;99.90;;;;;;5071454;28;20511;-69
2022/11/05 07:16:44;;;;;;;20.57;14.83;;;11.00;99.90;;;;;;5071967;28;20176;-69
2022/11/05 07:19:10;;;;;;;20.43;15.67;;;11.00;99.90;;;;;;5072489;28;20175;-69
2022/11/05 07:21:36;;;;;;;21.93;15.10;;;11.00;99.90;;;;;;5069644;28;20187;-69
2022/11/05 07:24:01;;;;;;;21.50;15.80;;;10.90;99.90;;;;;;5070062;28;20259;-69
2022/11/05 07:26:27;;;;;;;17.23;14.50;;;10.90;99.90;;;;;;5070532;28;20202;-69
2022/11/05 07:28:54;;;;;;;23.03;15.70;;;10.90;99.90;;;;;;5071837;28;20685;-69
2022/11/05 07:31:19;;;;;;;23.20;16.13;;;10.80;99.90;;;;;;5072541;28;20181;-69
2022/11/05 07:33:45;;;;;;;18.60;13.77;;;10.80;99.90;;;;;;5070406;28;20399;-69
2022/11/05 07:36:11;;;;;;;19.73;14.40;;;10.80;99.90;;;;;;5072189;28;20182;-69
2022/11/05 07:38:37;;;;;;;19.33;15.47;;;10.80;99.90;;;;;;5071606;28;20638;-69
2022/11/05 07:41:03;;;;;;;22.33;16.00;;;10.80;99.90;;;;;;5072437;28;20514;-69
2022/11/05 07:43:29;;;;;;;23.10;16.70;;;10.80;99.90;;;;;;5070539;28;20238;-69
2022/11/05 07:45:54;;;;;;;26.13;15.20;;;10.80;99.90;;;;;;5070699;28;20453;-69
2022/11/05 07:48:20;;;;;;;22.00;15.63;;;10.80;99.90;;;;;;5070967;28;20176;-68
2022/11/05 07:50:49;;;;;;;23.63;17.03;;;10.90;99.90;;;;;;5062842;28;20175;-69
2022/11/05 07:53:15;;;;;;;21.63;16.10;;;10.90;99.90;;;;;;5072748;28;20180;-69
2022/11/05 07:55:41;;;;;;;21.80;16.90;;;11.00;99.90;;;;;;5072000;28;20410;-69
2022/11/05 07:58:07;;;;;;;21.40;16.30;;;11.10;99.90;;;;;;5072206;28;20181;-69
2022/11/05 08:00:33;;;;;;;19.00;15.50;;;11.10;99.90;;;;;;5071008;28;20420;-69
2022/11/05 08:02:59;;;;;;;20.40;16.00;;;11.20;99.90;;;;;;5042782;28;20496;-69
2022/11/05 08:05:25;;;;;;;22.17;16.07;;;11.30;99.90;;;;;;5072472;28;20765;-69
2022/11/05 08:07:55;;;;;;;21.63;15.80;;;11.40;99.90;;;;;;5068245;28;20469;-68
2022/11/05 08:10:23;;;;;;;20.10;16.03;;;11.50;99.90;;;;;;5056433;28;20434;-69
2022/11/05 08:12:49;;;;;;;21.53;16.67;;;11.50;99.90;;;;;;5053278;28;20434;-68
2022/11/05 08:15:14;;;;;;;21.13;16.23;;;11.60;99.90;;;;;;5061002;28;20441;-69
2022/11/05 08:17:40;;;;;;;21.70;16.70;;;11.70;99.90;;;;;;5063060;28;20415;-69
2022/11/05 08:20:07;;;;;;;20.00;16.40;;;11.80;99.90;;;;;;5059865;28;20427;-69
2022/11/05 08:22:33;;;;;;;21.67;16.53;;;11.80;99.90;;;;;;5063242;28;20423;-69
2022/11/05 08:24:58;;;;;;;21.90;17.40;;;11.90;99.90;;;;;;5072099;28;20434;-69
2022/11/05 08:27:24;;;;;;;22.40;17.43;;;12.00;99.90;;;;;;5069974;28;20200;-69
2022/11/05 08:29:50;;;;;;;23.67;17.37;;;12.10;99.90;;;;;;5050400;28;20260;-69
2022/11/05 08:32:15;;;;;;;24.93;18.90;;;12.10;99.90;;;;;;5065807;28;20189;-68
2022/11/05 08:34:41;;;;;;;21.90;16.10;;;12.20;99.90;;;;;;5070653;28;20179;-69
2022/11/05 08:37:07;;;;;;;22.07;17.37;;;12.20;99.90;;;;;;5072113;28;20177;-69
2022/11/05 08:39:33;;;;;;;19.23;14.67;;;12.30;99.90;;;;;;5072363;28;20456;-69
2022/11/05 08:41:58;;;;;;;17.93;15.27;;;12.40;99.90;;;;;;5071378;28;20184;-69
2022/11/05 08:44:24;;;;;;;18.50;15.63;;;12.40;99.90;;;;;;5072243;28;20172;-69
2022/11/05 08:46:50;;;;;;;18.03;14.50;;;12.40;99.90;;;;;;5071234;28;20207;-69
2022/11/05 08:49:16;;;;;;;20.77;16.73;;;12.40;99.90;;;;;;5070905;28;20690;-69
2022/11/05 08:51:44;;;;;;;17.20;15.17;;;12.30;99.90;;;;;;5070035;28;20504;-69
2022/11/05 08:54:10;;;;;;;16.77;14.50;;;12.40;99.90;;;;;;5068009;28;20215;-69
2022/11/05 08:56:36;;;;;;;17.90;13.13;;;12.70;99.90;;;;;;5067154;28;20459;-69
2022/11/05 08:59:02;;;;;;;15.17;12.93;;;12.90;99.90;;;;;;5062149;28;20185;-69
2022/11/05 09:01:27;;;;;;;17.03;13.00;;;13.10;99.90;;;;;;5061964;28;20470;-69
2022/11/05 09:03:53;;;;;;;15.87;14.30;;;13.40;99.90;;;;;;5061608;28;20180;-69
2022/11/05 09:06:19;;;;;;;18.17;13.73;;;13.60;99.90;;;;;;5068873;28;20288;-68
2022/11/05 09:08:45;;;;;;;15.20;13.60;;;13.90;99.90;;;;;;5074448;28;20214;-68
2022/11/05 09:11:11;;;;;;;16.30;13.67;;;14.20;99.90;;;;;;5075176;28;20169;-68
2022/11/05 09:13:37;;;;;;;14.57;12.80;;;14.50;99.90;;;;;;5075018;28;20560;-68
2022/11/05 09:16:03;;;;;;;15.73;14.10;;;14.70;99.90;;;;;;5073849;28;20185;-67
2022/11/05 09:18:29;;;;;;;14.53;13.03;;;15.00;99.90;;;;;;5074492;28;20185;-69
2022/11/05 09:20:55;;;;;;;13.90;12.57;;;15.20;99.90;;;;;;5073086;28;20439;-68
2022/11/05 09:23:20;;;;;;;17.20;13.47;;;15.50;99.90;;;;;;5075505;28;20466;-68
2022/11/05 09:25:46;;;;;;;15.57;13.90;;;15.70;99.50;;;;;;5073355;28;20194;-67
2022/11/05 09:28:15;;;;;;;15.10;13.50;;;15.90;98.00;;;;;;5075661;28;20175;-69
2022/11/05 09:30:45;;;;;;;13.93;12.10;;;16.10;97.80;;;;;;5070472;28;20777;-69
2022/11/05 09:33:12;;;;;;;13.90;12.47;;;16.20;95.90;;;;;;5067589;28;20776;-68
2022/11/05 09:35:39;;;;;;;14.43;13.00;;;16.30;96.30;;;;;;5058227;28;20437;-68
2022/11/05 09:38:06;;;;;;;14.10;12.50;;;16.50;96.80;;;;;;5072621;28;20431;-68
2022/11/05 09:40:40;;;;;;;13.13;11.77;;;16.60;96.20;;;;;;5068911;28;20953;-69
2022/11/05 09:43:06;;;;;;;12.90;11.60;;;16.60;95.20;;;;;;5072151;28;20415;-68
2022/11/05 09:45:34;;;;;;;13.63;12.43;;;16.70;94.90;;;;;;5068720;28;20805;-68
2022/11/05 09:48:14;;;;;;;12.47;11.37;;;16.70;95.30;;;;;;5060489;28;20442;-68
2022/11/05 09:50:44;;;;;;;13.20;11.73;;;16.60;94.20;;;;;;5064798;28;20426;-68
2022/11/05 09:53:16;;;;;;;13.77;12.37;;;16.60;94.40;;;;;;5069351;28;20441;-68
2022/11/05 09:55:46;;;;;;;13.00;11.67;;;16.70;93.90;;;;;;5071570;28;20741;-69
2022/11/05 09:58:17;;;;;;;11.90;10.80;;;16.80;94.00;;;;;;5058735;28;20454;-69
2022/11/05 10:00:47;;;;;;;11.60;10.50;;;17.00;93.80;;;;;;5062171;28;20466;-69
2022/11/05 10:03:18;;;;;;;11.83;10.83;;;17.30;93.00;;;;;;5036632;28;20420;-69
2022/11/05 10:05:44;;;;;;;11.37;10.20;;;17.40;92.70;;;;;;5051223;28;20796;-69
2022/11/05 10:08:17;;;;;;;13.73;10.63;;;17.50;92.10;;;;;;5035840;28;20415;-69
2022/11/05 10:11:03;;;;;;;12.60;11.30;;;17.50;91.80;;;;;;5053063;28;20412;-69
2022/11/05 10:13:39;;;;;;;11.60;10.40;;;17.40;92.40;;;;;;5023913;28;20416;-69
2022/11/05 10:16:13;;;;;;;14.47;10.33;;;17.30;91.50;;;;;;5036280;28;20415;-69
2022/11/05 10:18:43;;;;;;;11.37;10.20;;;17.10;92.60;;;;;;5054293;28;20530;-69
2022/11/05 10:21:16;;;;;;;14.73;10.87;;;16.90;92.10;;;;;;5053701;28;20766;-69
2022/11/05 10:23:46;;;;;;;13.33;9.00;;;16.80;92.70;;;;;;5053779;28;20457;-69
2022/11/05 10:26:21;;;;;;;12.47;11.20;;;16.70;93.60;;;;;;5019617;28;20553;-69
2022/11/05 10:28:47;;;;;;;12.40;10.40;;;16.80;94.70;;;;;;5035091;28;20425;-69
2022/11/05 10:31:16;;;;;;;11.13;9.50;;;17.00;94.00;;;;;;5053810;28;20465;-69
2022/11/05 10:33:59;;;;;;;9.93;9.00;;;17.20;94.10;;;;;;5053116;28;20404;-70
2022/11/05 10:36:30;;;;;;;11.53;10.53;;;17.40;93.10;;;;;;5052583;28;20444;-69
2022/11/05 10:39:05;;;;;;;11.20;10.10;;;17.60;91.90;;;;;;5053255;28;20445;-69
2022/11/05 10:41:51;;;;;;;9.97;9.07;;;17.80;91.80;;;;;;5053659;28;20851;-70
2022/11/05 10:44:23;;;;;;;16.70;8.97;;;18.10;91.50;;;;;;5054073;28;20396;-69
2022/11/05 10:47:02;;;;;;;10.50;9.30;;;18.00;88.00;;;;;;5052797;28;20551;-69
2022/11/05 10:49:51;;;;;;;10.67;9.67;;;17.80;88.50;;;;;;5053728;28;20511;-69
2022/11/05 10:52:35;;;;;;;9.00;8.10;;;18.00;90.40;;;;;;5033531;28;20398;-69
2022/11/05 10:55:06;;;;;;;9.80;9.00;;;18.10;88.10;;;;;;5016740;28;20410;-69
2022/11/05 10:57:39;;;;;;;9.67;8.70;;;18.10;90.30;;;;;;5040365;28;20404;-70
2022/11/05 11:00:17;;;;;;;10.43;9.53;;;18.30;88.80;;;;;;5040686;28;20417;-70
2022/11/05 11:02:44;;;;;;;9.90;9.07;;;18.50;89.30;;;;;;5038677;28;20497;-70
2022/11/05 11:05:19;;;;;;;9.33;8.63;;;18.60;86.00;;;;;;5066085;28;20419;-70
2022/11/05 11:08:10;;;;;;;10.07;9.03;;;18.70;86.50;;;;;;5071470;28;20486;-70
2022/11/05 11:10:40;;;;;;;9.13;8.33;;;18.70;85.10;;;;;;5071478;28;20453;-70
2022/11/05 11:13:19;;;;;;;8.67;7.97;;;18.50;84.40;;;;;;5051516;28;20404;-69
2022/11/05 11:15:44;;;;;;;8.80;8.00;;;18.40;84.00;;;;;;5064153;28;20419;-68
2022/11/05 11:18:41;;;;;;;9.47;8.57;;;18.20;84.70;;;;;;5070749;28;20430;-69
2022/11/05 11:21:16;;;;;;;8.63;7.90;;;18.20;84.60;;;;;;5056737;28;20272;-69
2022/11/05 11:23:42;;;;;;;9.30;8.40;;;18.00;84.70;;;;;;5060706;28;20427;-68
2022/11/05 11:26:10;;;;;;;7.80;7.17;;;17.90;85.10;;;;;;5069816;28;20941;-68
2022/11/05 11:28:54;;;;;;;8.60;7.57;;;17.80;85.70;;;;;;5069197;28;20922;-68
2022/11/05 11:31:23;;;;;;;6.90;6.20;;;17.60;86.40;;;;;;5060905;28;20565;-69
2022/11/05 11:34:04;;;;;;;6.83;6.20;;;17.50;86.30;;;;;;5070176;28;20907;-69
2022/11/05 11:36:40;;;;;;;7.77;7.07;;;17.40;88.10;;;;;;5072614;28;20395;-69
2022/11/05 11:39:10;;;;;;;7.27;6.57;;;17.30;88.60;;;;;;5072082;28;20671;-68
2022/11/05 11:41:40;;;;;;;7.67;7.07;;;17.20;89.10;;;;;;5072450;28;20411;-69
2022/11/05 11:44:29;;;;;;;10.27;7.23;;;17.00;90.00;;;;;;5072200;28;20402;-68
2022/11/05 11:47:03;;;;;;;6.83;6.23;;;16.90;90.20;;;;;;5066528;28;20456;-68
2022/11/05 11:49:59;;;;;;;6.97;6.33;;;16.90;90.30;;;;;;5071487;28;20489;-68
2022/11/05 11:52:32;;;;;;;163.40;134.20;;;16.80;89.50;;;;;;5070342;28;20454;-69
2022/11/05 11:55:20;;;;;;;21.60;18.37;;;16.70;89.80;;;;;;5063822;28;20600;-69
2022/11/05 11:57:47;;;;;;;111.70;78.43;;;16.70;90.50;;;;;;5060477;28;20423;-69
2022/11/05 12:00:14;;;;;;;9.20;8.20;;;16.60;90.80;;;;;;5064516;28;20426;-68
2022/11/05 12:02:55;;;;;;;7.60;6.67;;;16.50;90.90;;;;;;5045384;28;20451;-69
2022/11/05 12:05:28;;;;;;;6.50;6.00;;;16.50;90.60;;;;;;5042890;28;20419;-69
2022/11/05 12:07:58;;;;;;;9.60;6.33;;;16.40;90.60;;;;;;5040053;28;20526;-70
2022/11/05 12:10:44;;;;;;;6.50;5.93;;;16.40;90.30;;;;;;5041056;28;20541;-70
2022/11/05 12:13:21;;;;;;;6.83;6.10;;;16.40;90.60;;;;;;5040796;28;20937;-69
2022/11/05 12:16:24;;;;;;;7.30;6.70;;;16.50;91.10;;;;;;5041915;28;20424;-69
2022/11/05 12:19:17;;;;;;;6.80;6.20;;;16.50;90.80;;;;;;5037204;28;20416;-70
2022/11/05 12:21:54;;;;;;;7.40;6.80;;;16.30;91.00;;;;;;5036521;28;20478;-70
2022/11/05 12:24:37;;;;;;;49.93;43.17;;;16.20;91.30;;;;;;5051263;28;20427;-69
2022/11/05 12:27:40;;;;;;;89.30;66.40;;;16.20;91.20;;;;;;5050601;28;20463;-71
2022/11/05 12:30:20;;;;;;;9.70;8.80;;;16.20;91.80;;;;;;5050531;28;20505;-69
2022/11/05 12:32:54;;;;;;;7.23;6.63;;;16.10;91.70;;;;;;5026038;28;21303;-68
2022/11/05 12:35:56;;;;;;;12.37;7.23;;;15.90;91.70;;;;;;5034277;28;20444;-68
2022/11/05 12:38:36;;;;;;;6.80;6.10;;;15.80;92.10;;;;;;5050717;28;21071;-68
2022/11/05 12:41:11;;;;;;;6.67;6.07;;;15.90;92.50;;;;;;5044960;28;20771;-69
2022/11/05 12:43:37;;;;;;;8.20;7.37;;;16.00;92.30;;;;;;5051955;28;20406;-68
2022/11/05 12:46:25;;;;;;;8.20;7.50;;;15.90;93.10;;;;;;5047080;28;20934;-68
2022/11/05 12:48:57;;;;;;;7.80;7.20;;;15.90;93.00;;;;;;5052900;28;20229;-69
2022/11/05 12:51:47;;;;;;;7.90;7.20;;;15.90;93.10;;;;;;5052341;28;20814;-69
2022/11/05 12:54:43;;;;;;;7.80;7.00;;;15.80;93.00;;;;;;5053833;28;20473;-70
2022/11/05 12:57:12;;;;;;;8.40;7.07;;;15.80;92.90;;;;;;5053584;28;20933;-70
2022/11/05 13:00:05;;;;;;;8.50;7.80;;;15.80;92.70;;;;;;5055036;28;20750;-70
2022/11/05 13:02:34;;;;;;;8.20;7.40;;;15.50;93.10;;;;;;5055355;28;20446;-70
2022/11/05 13:05:31;;;;;;;9.23;7.10;;;15.50;93.30;;;;;;5054425;28;20425;-70
2022/11/05 13:08:09;;;;;;;7.03;6.53;;;15.60;94.00;;;;;;5034626;28;20424;-70
2022/11/05 13:10:53;;;;;;;7.03;6.43;;;15.50;94.50;;;;;;5035678;28;20703;-70
2022/11/05 13:13:25;;;;;;;6.47;5.87;;;15.50;93.60;;;;;;5035022;28;20455;-70
2022/11/05 13:15:55;;;;;;;7.63;6.50;;;15.30;93.10;;;;;;5040406;28;20538;-70
2022/11/05 13:18:40;;;;;;;6.43;5.93;;;15.30;93.30;;;;;;5037349;28;20856;-71
2022/11/05 13:21:09;;;;;;;6.90;6.30;;;15.30;93.90;;;;;;5054500;28;20388;-71
2022/11/05 13:23:43;;;;;;;7.17;6.47;;;15.30;93.80;;;;;;5054999;28;20439;-71
2022/11/05 13:26:21;;;;;;;7.53;6.83;;;15.30;93.80;;;;;;5053214;28;20456;-71
2022/11/05 13:29:01;;;;;;;7.47;6.77;;;15.30;93.40;;;;;;5055085;28;20812;-70